sensor_id;sensor_type;location;lat;lon;timestamp;temperature;humidity
420;DHT22;42600;54.408;13.016;2022-11-15T00:01:07;6.60;92.70
420;DHT22;42600;54.408;13.016;2022-11-15T00:03:33;6.60;92.70
420;DHT22;42600;54.408;13.016;2022-11-15T00:06:01;6.60;92.70
420;DHT22;42600;54.408;13.016;2022-11-15T00:08:29;6.60;92.70
420;DHT22;42600;54.408;13.016;2022-11-15T00:10:59;6.60;92.70
420;DHT22;42600;54.408;13.016;2022-11-15T00:13:26;6.60;92.70
420;DHT22;42600;54.408;13.016;2022-11-15T00:15:56;6.50;92.70
420;DHT22;42600;54.408;13.016;2022-11-15T00:18:23;6.50;92.70
420;DHT22;42600;54.408;13.016;2022-11-15T00:20:50;6.50;92.70
420;DHT22;42600;54.408;13.016;2022-11-15T00:23:16;6.50;92.70
420;DHT22;42600;54.408;13.016;2022-11-15T00:25:43;6.60;92.70
420;DHT22;42600;54.408;13.016;2022-11-15T00:28:11;6.60;92.70
420;DHT22;42600;54.408;13.016;2022-11-15T00:30:37;6.60;92.70
420;DHT22;42600;54.408;13.016;2022-11-15T00:33:05;6.60;92.70
420;DHT22;42600;54.408;13.016;2022-11-15T00:35:32;6.50;92.70
420;DHT22;42600;54.408;13.016;2022-11-15T00:37:59;6.60;92.70
420;DHT22;42600;54.408;13.016;2022-11-15T00:40:26;6.60;92.70
420;DHT22;42600;54.408;13.016;2022-11-15T00:42:53;6.50;92.70
420;DHT22;42600;54.408;13.016;2022-11-15T00:45:21;6.50;92.70
420;DHT22;42600;54.408;13.016;2022-11-15T00:47:48;6.50;92.70
420;DHT22;42600;54.408;13.016;2022-11-15T00:50:14;6.50;92.70
420;DHT22;42600;54.408;13.016;2022-11-15T00:52:41;6.50;92.70
420;DHT22;42600;54.408;13.016;2022-11-15T00:55:09;6.50;92.70
420;DHT22;42600;54.408;13.016;2022-11-15T00:57:39;6.50;92.70
420;DHT22;42600;54.408;13.016;2022-11-15T01:00:06;6.50;92.70
420;DHT22;42600;54.408;13.016;2022-11-15T01:02:34;6.50;92.70
420;DHT22;42600;54.408;13.016;2022-11-15T01:05:01;6.60;92.70
420;DHT22;42600;54.408;13.016;2022-11-15T01:07:28;6.50;92.70
420;DHT22;42600;54.408;13.016;2022-11-15T01:09:54;6.50;92.70
420;DHT22;42600;54.408;13.016;2022-11-15T01:12:21;6.50;92.70
420;DHT22;42600;54.408;13.016;2022-11-15T01:14:49;6.50;92.70
420;DHT22;42600;54.408;13.016;2022-11-15T01:17:16;6.50;92.70
420;DHT22;42600;54.408;13.016;2022-11-15T01:19:44;6.50;92.70
420;DHT22;42600;54.408;13.016;2022-11-15T01:22:11;6.50;92.70
420;DHT22;42600;54.408;13.016;2022-11-15T01:24:37;6.50;92.70
420;DHT22;42600;54.408;13.016;2022-11-15T01:27:04;6.50;92.70
420;DHT22;42600;54.408;13.016;2022-11-15T01:29:31;6.50;92.70
420;DHT22;42600;54.408;13.016;2022-11-15T01:31:57;6.60;92.70
420;DHT22;42600;54.408;13.016;2022-11-15T01:34:24;6.60;92.70
420;DHT22;42600;54.408;13.016;2022-11-15T01:36:52;6.50;92.70
420;DHT22;42600;54.408;13.016;2022-11-15T01:39:18;6.50;92.70
420;DHT22;42600;54.408;13.016;2022-11-15T01:41:45;6.50;92.70
420;DHT22;42600;54.408;13.016;2022-11-15T01:44:41;6.50;92.70
420;DHT22;42600;54.408;13.016;2022-11-15T01:47:10;6.50;92.70
420;DHT22;42600;54.408;13.016;2022-11-15T01:49:41;6.50;92.70
420;DHT22;42600;54.408;13.016;2022-11-15T01:52:16;6.50;92.70
420;DHT22;42600;54.408;13.016;2022-11-15T01:54:44;6.50;92.70
420;DHT22;42600;54.408;13.016;2022-11-15T01:57:12;6.50;92.70
420;DHT22;42600;54.408;13.016;2022-11-15T01:59:42;6.50;92.70
420;DHT22;42600;54.408;13.016;2022-11-15T02:02:09;6.50;92.70
420;DHT22;42600;54.408;13.016;2022-11-15T02:04:39;6.40;92.70
420;DHT22;42600;54.408;13.016;2022-11-15T02:07:07;6.40;92.70
420;DHT22;42600;54.408;13.016;2022-11-15T02:09:37;6.40;92.70
420;DHT22;42600;54.408;13.016;2022-11-15T02:12:05;6.40;92.70
420;DHT22;42600;54.408;13.016;2022-11-15T02:14:33;6.40;92.70
420;DHT22;42600;54.408;13.016;2022-11-15T02:17:17;6.40;92.70
420;DHT22;42600;54.408;13.016;2022-11-15T02:20:23;6.40;92.70
420;DHT22;42600;54.408;13.016;2022-11-15T02:23:10;6.40;92.70
420;DHT22;42600;54.408;13.016;2022-11-15T02:25:52;6.40;92.70
420;DHT22;42600;54.408;13.016;2022-11-15T02:28:41;6.40;92.70
420;DHT22;42600;54.408;13.016;2022-11-15T02:31:14;6.40;92.70
420;DHT22;42600;54.408;13.016;2022-11-15T02:33:50;6.40;92.70
420;DHT22;42600;54.408;13.016;2022-11-15T02:36:26;6.40;92.70
420;DHT22;42600;54.408;13.016;2022-11-15T02:39:02;6.40;92.70
420;DHT22;42600;54.408;13.016;2022-11-15T02:41:33;6.40;92.70
420;DHT22;42600;54.408;13.016;2022-11-15T02:44:06;6.40;92.70
420;DHT22;42600;54.408;13.016;2022-11-15T02:46:38;6.40;92.70
420;DHT22;42600;54.408;13.016;2022-11-15T02:49:25;6.40;92.70
420;DHT22;42600;54.408;13.016;2022-11-15T02:51:55;6.40;92.70
420;DHT22;42600;54.408;13.016;2022-11-15T02:54:23;6.40;92.70
420;DHT22;42600;54.408;13.016;2022-11-15T02:56:53;6.40;92.70
420;DHT22;42600;54.408;13.016;2022-11-15T02:59:41;6.40;92.70
420;DHT22;42600;54.408;13.016;2022-11-15T03:02:29;6.40;92.70
420;DHT22;42600;54.408;13.016;2022-11-15T03:05:04;6.40;92.70
420;DHT22;42600;54.408;13.016;2022-11-15T03:07:37;6.40;92.70
420;DHT22;42600;54.408;13.016;2022-11-15T03:10:09;6.40;92.70
420;DHT22;42600;54.408;13.016;2022-11-15T03:12:42;6.30;92.70
420;DHT22;42600;54.408;13.016;2022-11-15T03:15:13;6.30;92.70
420;DHT22;42600;54.408;13.016;2022-11-15T03:17:48;6.30;92.70
420;DHT22;42600;54.408;13.016;2022-11-15T03:20:17;6.30;92.70
420;DHT22;42600;54.408;13.016;2022-11-15T03:22:47;6.20;92.70
420;DHT22;42600;54.408;13.016;2022-11-15T03:25:18;6.20;92.70
420;DHT22;42600;54.408;13.016;2022-11-15T03:27:48;6.20;92.70
420;DHT22;42600;54.408;13.016;2022-11-15T03:30:17;6.20;92.70
420;DHT22;42600;54.408;13.016;2022-11-15T03:32:47;6.20;92.70
420;DHT22;42600;54.408;13.016;2022-11-15T03:35:18;6.20;92.70
420;DHT22;42600;54.408;13.016;2022-11-15T03:37:50;6.20;92.70
420;DHT22;42600;54.408;13.016;2022-11-15T03:40:24;6.10;92.70
420;DHT22;42600;54.408;13.016;2022-11-15T03:43:00;6.10;92.70
420;DHT22;42600;54.408;13.016;2022-11-15T03:45:31;6.20;92.70
420;DHT22;42600;54.408;13.016;2022-11-15T03:48:04;6.10;92.70
420;DHT22;42600;54.408;13.016;2022-11-15T03:50:33;6.10;92.70
420;DHT22;42600;54.408;13.016;2022-11-15T03:53:00;6.10;92.70
420;DHT22;42600;54.408;13.016;2022-11-15T03:55:27;6.10;92.70
420;DHT22;42600;54.408;13.016;2022-11-15T03:57:57;6.10;92.70
420;DHT22;42600;54.408;13.016;2022-11-15T04:00:25;6.10;92.70
420;DHT22;42600;54.408;13.016;2022-11-15T04:02:51;6.10;92.70
420;DHT22;42600;54.408;13.016;2022-11-15T04:05:19;6.10;92.70
420;DHT22;42600;54.408;13.016;2022-11-15T04:07:46;6.10;92.70
420;DHT22;42600;54.408;13.016;2022-11-15T04:10:12;6.10;92.70
420;DHT22;42600;54.408;13.016;2022-11-15T04:12:41;6.10;92.70
420;DHT22;42600;54.408;13.016;2022-11-15T04:15:10;6.10;92.70
420;DHT22;42600;54.408;13.016;2022-11-15T04:17:39;6.10;92.70
420;DHT22;42600;54.408;13.016;2022-11-15T04:20:09;6.10;92.70
420;DHT22;42600;54.408;13.016;2022-11-15T04:22:55;6.10;92.70
420;DHT22;42600;54.408;13.016;2022-11-15T04:25:40;6.20;92.70
420;DHT22;42600;54.408;13.016;2022-11-15T04:28:07;6.20;92.70
420;DHT22;42600;54.408;13.016;2022-11-15T04:30:34;6.10;92.70
420;DHT22;42600;54.408;13.016;2022-11-15T04:33:00;6.10;92.70
420;DHT22;42600;54.408;13.016;2022-11-15T04:35:27;6.10;92.70
420;DHT22;42600;54.408;13.016;2022-11-15T04:37:55;6.10;92.70
420;DHT22;42600;54.408;13.016;2022-11-15T04:40:21;6.10;92.70
420;DHT22;42600;54.408;13.016;2022-11-15T04:42:48;6.10;92.70
420;DHT22;42600;54.408;13.016;2022-11-15T04:45:15;6.10;92.70
420;DHT22;42600;54.408;13.016;2022-11-15T04:47:43;6.10;92.70
420;DHT22;42600;54.408;13.016;2022-11-15T04:50:10;6.10;92.70
420;DHT22;42600;54.408;13.016;2022-11-15T04:52:38;6.20;92.70
420;DHT22;42600;54.408;13.016;2022-11-15T04:55:06;6.10;92.70
420;DHT22;42600;54.408;13.016;2022-11-15T04:57:33;6.10;92.70
420;DHT22;42600;54.408;13.016;2022-11-15T04:59:59;6.10;92.70
420;DHT22;42600;54.408;13.016;2022-11-15T05:02:26;6.10;92.70
420;DHT22;42600;54.408;13.016;2022-11-15T05:05:13;6.10;92.70
420;DHT22;42600;54.408;13.016;2022-11-15T05:07:38;6.10;92.70
420;DHT22;42600;54.408;13.016;2022-11-15T05:10:07;6.10;92.70
420;DHT22;42600;54.408;13.016;2022-11-15T05:12:33;6.10;92.70
420;DHT22;42600;54.408;13.016;2022-11-15T05:15:00;6.10;92.70
420;DHT22;42600;54.408;13.016;2022-11-15T05:17:26;6.10;92.70
420;DHT22;42600;54.408;13.016;2022-11-15T05:19:53;6.10;92.70
420;DHT22;42600;54.408;13.016;2022-11-15T05:22:20;6.10;92.70
420;DHT22;42600;54.408;13.016;2022-11-15T05:24:47;6.10;92.70
420;DHT22;42600;54.408;13.016;2022-11-15T05:27:14;6.10;92.70
420;DHT22;42600;54.408;13.016;2022-11-15T05:29:41;6.10;92.70
420;DHT22;42600;54.408;13.016;2022-11-15T05:32:09;6.10;92.70
420;DHT22;42600;54.408;13.016;2022-11-15T05:34:35;6.10;92.70
420;DHT22;42600;54.408;13.016;2022-11-15T05:37:03;6.10;92.70
420;DHT22;42600;54.408;13.016;2022-11-15T05:39:30;6.10;92.70
420;DHT22;42600;54.408;13.016;2022-11-15T05:42:00;6.10;92.70
420;DHT22;42600;54.408;13.016;2022-11-15T05:44:29;6.10;92.70
420;DHT22;42600;54.408;13.016;2022-11-15T05:46:57;6.10;92.70
420;DHT22;42600;54.408;13.016;2022-11-15T05:49:26;6.10;92.70
420;DHT22;42600;54.408;13.016;2022-11-15T05:51:54;6.00;92.70
420;DHT22;42600;54.408;13.016;2022-11-15T05:54:21;6.10;92.70
420;DHT22;42600;54.408;13.016;2022-11-15T05:56:48;6.10;92.70
420;DHT22;42600;54.408;13.016;2022-11-15T05:59:16;6.00;92.70
420;DHT22;42600;54.408;13.016;2022-11-15T06:01:45;6.10;92.70
420;DHT22;42600;54.408;13.016;2022-11-15T06:04:12;6.10;92.70
420;DHT22;42600;54.408;13.016;2022-11-15T06:06:38;6.10;92.70
420;DHT22;42600;54.408;13.016;2022-11-15T06:09:05;6.10;92.70
420;DHT22;42600;54.408;13.016;2022-11-15T06:11:31;6.00;92.70
420;DHT22;42600;54.408;13.016;2022-11-15T06:13:58;6.00;92.70
420;DHT22;42600;54.408;13.016;2022-11-15T06:16:24;6.00;92.70
420;DHT22;42600;54.408;13.016;2022-11-15T06:18:52;6.00;92.70
420;DHT22;42600;54.408;13.016;2022-11-15T06:21:19;6.00;92.70
420;DHT22;42600;54.408;13.016;2022-11-15T06:23:45;6.00;92.70
420;DHT22;42600;54.408;13.016;2022-11-15T06:26:12;6.00;92.70
420;DHT22;42600;54.408;13.016;2022-11-15T06:28:39;6.00;92.70
420;DHT22;42600;54.408;13.016;2022-11-15T06:31:06;6.00;92.70
420;DHT22;42600;54.408;13.016;2022-11-15T06:33:33;6.00;92.70
420;DHT22;42600;54.408;13.016;2022-11-15T06:36:02;6.00;92.70
420;DHT22;42600;54.408;13.016;2022-11-15T06:38:29;6.00;92.70
420;DHT22;42600;54.408;13.016;2022-11-15T06:41:01;6.00;92.70
420;DHT22;42600;54.408;13.016;2022-11-15T06:43:28;6.00;92.70
420;DHT22;42600;54.408;13.016;2022-11-15T06:45:54;6.00;92.70
420;DHT22;42600;54.408;13.016;2022-11-15T06:48:21;6.10;92.70
420;DHT22;42600;54.408;13.016;2022-11-15T06:50:50;6.10;92.70
420;DHT22;42600;54.408;13.016;2022-11-15T06:53:18;6.10;92.70
420;DHT22;42600;54.408;13.016;2022-11-15T06:55:45;6.10;92.70
420;DHT22;42600;54.408;13.016;2022-11-15T06:58:11;6.10;92.70
420;DHT22;42600;54.408;13.016;2022-11-15T07:00:38;6.10;92.70
420;DHT22;42600;54.408;13.016;2022-11-15T07:03:05;6.10;92.70
420;DHT22;42600;54.408;13.016;2022-11-15T07:05:32;6.10;92.70
420;DHT22;42600;54.408;13.016;2022-11-15T07:07:59;6.10;92.70
420;DHT22;42600;54.408;13.016;2022-11-15T07:10:28;6.00;92.70
420;DHT22;42600;54.408;13.016;2022-11-15T07:12:55;6.00;92.70
420;DHT22;42600;54.408;13.016;2022-11-15T07:15:25;6.00;92.70
420;DHT22;42600;54.408;13.016;2022-11-15T07:17:52;6.00;92.70
420;DHT22;42600;54.408;13.016;2022-11-15T07:20:19;6.00;92.70
420;DHT22;42600;54.408;13.016;2022-11-15T07:22:45;6.10;92.70
420;DHT22;42600;54.408;13.016;2022-11-15T07:25:12;6.10;92.70
420;DHT22;42600;54.408;13.016;2022-11-15T07:27:40;6.10;92.70
420;DHT22;42600;54.408;13.016;2022-11-15T07:30:08;6.10;92.70
420;DHT22;42600;54.408;13.016;2022-11-15T07:32:35;6.10;92.70
420;DHT22;42600;54.408;13.016;2022-11-15T07:35:02;6.10;92.70
420;DHT22;42600;54.408;13.016;2022-11-15T07:37:28;6.10;92.70
420;DHT22;42600;54.408;13.016;2022-11-15T07:39:55;6.10;92.70
420;DHT22;42600;54.408;13.016;2022-11-15T07:42:21;6.10;92.70
420;DHT22;42600;54.408;13.016;2022-11-15T07:45:08;6.10;92.70
420;DHT22;42600;54.408;13.016;2022-11-15T07:47:34;6.20;92.70
420;DHT22;42600;54.408;13.016;2022-11-15T07:50:01;6.10;92.70
420;DHT22;42600;54.408;13.016;2022-11-15T07:52:27;6.10;92.70
420;DHT22;42600;54.408;13.016;2022-11-15T07:54:54;6.20;92.70
420;DHT22;42600;54.408;13.016;2022-11-15T07:57:21;6.20;92.70
420;DHT22;42600;54.408;13.016;2022-11-15T07:59:47;6.20;92.70
420;DHT22;42600;54.408;13.016;2022-11-15T08:02:15;6.20;92.70
420;DHT22;42600;54.408;13.016;2022-11-15T08:04:43;6.20;92.70
420;DHT22;42600;54.408;13.016;2022-11-15T08:07:10;6.20;92.70
420;DHT22;42600;54.408;13.016;2022-11-15T08:09:36;6.20;92.70
420;DHT22;42600;54.408;13.016;2022-11-15T08:12:03;6.20;92.70
420;DHT22;42600;54.408;13.016;2022-11-15T08:14:30;6.20;92.70
420;DHT22;42600;54.408;13.016;2022-11-15T08:16:57;6.30;92.70
420;DHT22;42600;54.408;13.016;2022-11-15T08:19:25;6.30;92.70
420;DHT22;42600;54.408;13.016;2022-11-15T08:21:51;6.30;92.70
420;DHT22;42600;54.408;13.016;2022-11-15T08:24:18;6.20;92.70
420;DHT22;42600;54.408;13.016;2022-11-15T08:26:45;6.30;92.70
420;DHT22;42600;54.408;13.016;2022-11-15T08:29:12;6.20;92.70
420;DHT22;42600;54.408;13.016;2022-11-15T08:31:39;6.30;92.70
420;DHT22;42600;54.408;13.016;2022-11-15T08:34:06;6.30;92.70
420;DHT22;42600;54.408;13.016;2022-11-15T08:36:34;6.30;92.70
420;DHT22;42600;54.408;13.016;2022-11-15T08:39:00;6.30;92.70
420;DHT22;42600;54.408;13.016;2022-11-15T08:41:30;6.30;92.70
420;DHT22;42600;54.408;13.016;2022-11-15T08:43:57;6.30;92.70
420;DHT22;42600;54.408;13.016;2022-11-15T08:46:24;6.30;92.70
420;DHT22;42600;54.408;13.016;2022-11-15T08:48:51;6.40;92.70
420;DHT22;42600;54.408;13.016;2022-11-15T08:51:17;6.40;92.70
420;DHT22;42600;54.408;13.016;2022-11-15T08:53:45;6.40;92.70
420;DHT22;42600;54.408;13.016;2022-11-15T08:56:14;6.40;92.70
420;DHT22;42600;54.408;13.016;2022-11-15T08:58:41;6.50;92.70
420;DHT22;42600;54.408;13.016;2022-11-15T09:01:14;6.40;92.70
420;DHT22;42600;54.408;13.016;2022-11-15T09:03:41;6.40;92.70
420;DHT22;42600;54.408;13.016;2022-11-15T09:06:08;6.40;92.70
420;DHT22;42600;54.408;13.016;2022-11-15T09:08:35;6.40;92.70
420;DHT22;42600;54.408;13.016;2022-11-15T09:11:04;6.40;92.70
420;DHT22;42600;54.408;13.016;2022-11-15T09:13:31;6.50;92.70
420;DHT22;42600;54.408;13.016;2022-11-15T09:15:58;6.50;92.70
420;DHT22;42600;54.408;13.016;2022-11-15T09:18:25;6.50;92.70
420;DHT22;42600;54.408;13.016;2022-11-15T09:20:51;6.50;92.70
420;DHT22;42600;54.408;13.016;2022-11-15T09:23:22;6.50;92.70
420;DHT22;42600;54.408;13.016;2022-11-15T09:25:48;6.50;92.70
420;DHT22;42600;54.408;13.016;2022-11-15T09:28:16;6.50;92.70
420;DHT22;42600;54.408;13.016;2022-11-15T09:30:43;6.50;92.70
420;DHT22;42600;54.408;13.016;2022-11-15T09:33:11;6.50;92.70
420;DHT22;42600;54.408;13.016;2022-11-15T09:35:38;6.50;92.70
420;DHT22;42600;54.408;13.016;2022-11-15T09:38:06;6.60;92.70
420;DHT22;42600;54.408;13.016;2022-11-15T09:40:36;6.70;92.70
420;DHT22;42600;54.408;13.016;2022-11-15T09:43:10;6.70;92.70
420;DHT22;42600;54.408;13.016;2022-11-15T09:45:57;6.70;92.70
420;DHT22;42600;54.408;13.016;2022-11-15T09:48:44;6.70;92.70
420;DHT22;42600;54.408;13.016;2022-11-15T09:51:18;6.80;92.70
420;DHT22;42600;54.408;13.016;2022-11-15T09:53:49;6.80;92.70
420;DHT22;42600;54.408;13.016;2022-11-15T09:56:21;6.90;92.70
420;DHT22;42600;54.408;13.016;2022-11-15T09:58:53;6.90;92.70
420;DHT22;42600;54.408;13.016;2022-11-15T10:01:33;6.80;92.70
420;DHT22;42600;54.408;13.016;2022-11-15T10:04:02;6.80;92.70
420;DHT22;42600;54.408;13.016;2022-11-15T10:06:31;6.80;92.70
420;DHT22;42600;54.408;13.016;2022-11-15T10:09:01;6.90;92.70
420;DHT22;42600;54.408;13.016;2022-11-15T10:11:31;6.90;92.70
420;DHT22;42600;54.408;13.016;2022-11-15T10:14:01;7.00;92.70
420;DHT22;42600;54.408;13.016;2022-11-15T10:16:43;7.00;92.70
420;DHT22;42600;54.408;13.016;2022-11-15T10:19:21;7.10;92.70
420;DHT22;42600;54.408;13.016;2022-11-15T10:21:59;7.10;92.70
420;DHT22;42600;54.408;13.016;2022-11-15T10:24:30;7.10;92.70
420;DHT22;42600;54.408;13.016;2022-11-15T10:27:00;7.20;92.70
420;DHT22;42600;54.408;13.016;2022-11-15T10:29:27;7.10;92.70
420;DHT22;42600;54.408;13.016;2022-11-15T10:31:55;7.10;92.70
420;DHT22;42600;54.408;13.016;2022-11-15T10:34:23;7.10;92.70
420;DHT22;42600;54.408;13.016;2022-11-15T10:36:55;7.10;92.70
420;DHT22;42600;54.408;13.016;2022-11-15T10:39:22;7.20;92.70
420;DHT22;42600;54.408;13.016;2022-11-15T10:41:49;7.20;92.70
420;DHT22;42600;54.408;13.016;2022-11-15T10:44:21;7.20;92.70
420;DHT22;42600;54.408;13.016;2022-11-15T10:47:03;7.20;92.70
420;DHT22;42600;54.408;13.016;2022-11-15T10:49:31;7.20;92.70
420;DHT22;42600;54.408;13.016;2022-11-15T10:52:00;7.20;92.70
420;DHT22;42600;54.408;13.016;2022-11-15T10:54:29;7.30;92.70
420;DHT22;42600;54.408;13.016;2022-11-15T10:56:59;7.20;92.70
420;DHT22;42600;54.408;13.016;2022-11-15T10:59:29;7.20;92.70
420;DHT22;42600;54.408;13.016;2022-11-15T11:01:57;7.10;92.70
420;DHT22;42600;54.408;13.016;2022-11-15T11:04:49;7.10;92.70
420;DHT22;42600;54.408;13.016;2022-11-15T11:07:21;7.20;92.70
420;DHT22;42600;54.408;13.016;2022-11-15T11:09:57;7.20;92.70
420;DHT22;42600;54.408;13.016;2022-11-15T11:12:27;7.20;92.70
420;DHT22;42600;54.408;13.016;2022-11-15T11:14:55;7.20;92.70
420;DHT22;42600;54.408;13.016;2022-11-15T11:17:28;7.10;92.70
420;DHT22;42600;54.408;13.016;2022-11-15T11:20:06;7.10;92.70
420;DHT22;42600;54.408;13.016;2022-11-15T11:22:39;7.10;92.70
420;DHT22;42600;54.408;13.016;2022-11-15T11:25:19;7.10;92.70
420;DHT22;42600;54.408;13.016;2022-11-15T11:27:57;7.10;92.70
420;DHT22;42600;54.408;13.016;2022-11-15T11:30:32;7.10;92.70
420;DHT22;42600;54.408;13.016;2022-11-15T11:33:08;7.10;92.70
420;DHT22;42600;54.408;13.016;2022-11-15T11:35:46;7.10;92.70
420;DHT22;42600;54.408;13.016;2022-11-15T11:38:23;7.10;92.70
420;DHT22;42600;54.408;13.016;2022-11-15T11:41:00;7.10;92.70
420;DHT22;42600;54.408;13.016;2022-11-15T11:43:37;7.10;92.70
420;DHT22;42600;54.408;13.016;2022-11-15T11:46:17;7.10;92.70
420;DHT22;42600;54.408;13.016;2022-11-15T11:48:52;7.10;92.70
420;DHT22;42600;54.408;13.016;2022-11-15T11:51:24;7.20;92.70
420;DHT22;42600;54.408;13.016;2022-11-15T11:53:56;7.20;92.70
420;DHT22;42600;54.408;13.016;2022-11-15T11:56:27;7.20;92.70
420;DHT22;42600;54.408;13.016;2022-11-15T11:59:00;7.20;92.70
420;DHT22;42600;54.408;13.016;2022-11-15T12:01:29;7.20;92.70
420;DHT22;42600;54.408;13.016;2022-11-15T12:04:03;7.20;92.70
420;DHT22;42600;54.408;13.016;2022-11-15T12:06:36;7.30;92.70
420;DHT22;42600;54.408;13.016;2022-11-15T12:09:13;7.30;92.70
420;DHT22;42600;54.408;13.016;2022-11-15T12:11:48;7.30;92.70
420;DHT22;42600;54.408;13.016;2022-11-15T12:14:31;7.30;92.70
420;DHT22;42600;54.408;13.016;2022-11-15T12:16:59;7.30;92.70
420;DHT22;42600;54.408;13.016;2022-11-15T12:19:26;7.40;92.70
420;DHT22;42600;54.408;13.016;2022-11-15T12:21:59;7.40;92.70
420;DHT22;42600;54.408;13.016;2022-11-15T12:24:28;7.40;92.70
420;DHT22;42600;54.408;13.016;2022-11-15T12:27:00;7.40;92.70
420;DHT22;42600;54.408;13.016;2022-11-15T12:29:31;7.40;92.70
420;DHT22;42600;54.408;13.016;2022-11-15T12:31:59;7.40;92.70
420;DHT22;42600;54.408;13.016;2022-11-15T12:34:45;7.40;92.70
420;DHT22;42600;54.408;13.016;2022-11-15T12:40:28;7.40;92.70
420;DHT22;42600;54.408;13.016;2022-11-15T12:43:00;7.40;92.70
420;DHT22;42600;54.408;13.016;2022-11-15T12:45:29;7.40;92.70
420;DHT22;42600;54.408;13.016;2022-11-15T12:50:57;7.40;92.70
420;DHT22;42600;54.408;13.016;2022-11-15T12:53:28;7.40;92.70
420;DHT22;42600;54.408;13.016;2022-11-15T12:56:21;7.40;92.70
420;DHT22;42600;54.408;13.016;2022-11-15T12:58:51;7.50;92.70
420;DHT22;42600;54.408;13.016;2022-11-15T13:01:55;7.50;92.70
420;DHT22;42600;54.408;13.016;2022-11-15T13:04:25;7.50;92.70
420;DHT22;42600;54.408;13.016;2022-11-15T13:06:53;7.50;92.70
420;DHT22;42600;54.408;13.016;2022-11-15T13:09:49;7.50;92.70
420;DHT22;42600;54.408;13.016;2022-11-15T13:18:28;7.70;92.70
420;DHT22;42600;54.408;13.016;2022-11-15T13:20:56;7.70;92.70
420;DHT22;42600;54.408;13.016;2022-11-15T13:23:22;7.70;92.70
420;DHT22;42600;54.408;13.016;2022-11-15T13:26:12;7.70;92.70
420;DHT22;42600;54.408;13.016;2022-11-15T13:28:43;7.80;92.70
420;DHT22;42600;54.408;13.016;2022-11-15T13:31:27;7.80;92.70
420;DHT22;42600;54.408;13.016;2022-11-15T13:33:57;7.80;92.70
420;DHT22;42600;54.408;13.016;2022-11-15T13:36:26;7.90;92.70
420;DHT22;42600;54.408;13.016;2022-11-15T13:38:55;7.90;92.70
420;DHT22;42600;54.408;13.016;2022-11-15T13:41:24;7.90;92.70
420;DHT22;42600;54.408;13.016;2022-11-15T13:43:53;7.90;92.70
420;DHT22;42600;54.408;13.016;2022-11-15T13:46:21;7.90;92.70
420;DHT22;42600;54.408;13.016;2022-11-15T13:48:53;7.90;92.70
420;DHT22;42600;54.408;13.016;2022-11-15T13:51:26;7.90;92.70
420;DHT22;42600;54.408;13.016;2022-11-15T13:53:57;8.00;92.70
420;DHT22;42600;54.408;13.016;2022-11-15T13:56:25;8.00;92.70
420;DHT22;42600;54.408;13.016;2022-11-15T13:58:54;8.00;92.70
420;DHT22;42600;54.408;13.016;2022-11-15T14:01:21;8.00;92.70
420;DHT22;42600;54.408;13.016;2022-11-15T14:03:53;8.00;92.70
420;DHT22;42600;54.408;13.016;2022-11-15T14:06:22;8.00;92.70
420;DHT22;42600;54.408;13.016;2022-11-15T14:09:02;8.10;92.70
420;DHT22;42600;54.408;13.016;2022-11-15T14:11:29;8.10;92.70
420;DHT22;42600;54.408;13.016;2022-11-15T14:14:08;8.10;92.70
420;DHT22;42600;54.408;13.016;2022-11-15T14:16:38;8.10;92.70
420;DHT22;42600;54.408;13.016;2022-11-15T14:19:10;8.10;92.70
420;DHT22;42600;54.408;13.016;2022-11-15T14:21:37;8.10;92.70
420;DHT22;42600;54.408;13.016;2022-11-15T14:24:29;8.20;92.70
420;DHT22;42600;54.408;13.016;2022-11-15T14:26:56;8.20;92.70
420;DHT22;42600;54.408;13.016;2022-11-15T14:29:24;8.20;92.70
420;DHT22;42600;54.408;13.016;2022-11-15T14:31:51;8.20;92.70
420;DHT22;42600;54.408;13.016;2022-11-15T14:34:19;8.20;92.70
420;DHT22;42600;54.408;13.016;2022-11-15T14:36:47;8.20;92.70
420;DHT22;42600;54.408;13.016;2022-11-15T14:39:14;8.20;92.70
420;DHT22;42600;54.408;13.016;2022-11-15T14:41:40;8.20;92.70
420;DHT22;42600;54.408;13.016;2022-11-15T14:44:10;8.20;92.70
420;DHT22;42600;54.408;13.016;2022-11-15T14:46:37;8.10;92.70
420;DHT22;42600;54.408;13.016;2022-11-15T14:49:03;8.10;92.70
420;DHT22;42600;54.408;13.016;2022-11-15T14:51:31;8.10;92.70
420;DHT22;42600;54.408;13.016;2022-11-15T14:53:59;8.10;92.70
420;DHT22;42600;54.408;13.016;2022-11-15T14:56:25;8.10;92.70
420;DHT22;42600;54.408;13.016;2022-11-15T14:58:52;8.10;92.70
420;DHT22;42600;54.408;13.016;2022-11-15T15:01:21;8.10;92.70
420;DHT22;42600;54.408;13.016;2022-11-15T15:03:49;8.10;92.70
420;DHT22;42600;54.408;13.016;2022-11-15T15:06:17;8.10;92.70
420;DHT22;42600;54.408;13.016;2022-11-15T15:08:45;8.10;92.70
420;DHT22;42600;54.408;13.016;2022-11-15T15:11:14;8.10;92.70
420;DHT22;42600;54.408;13.016;2022-11-15T15:13:42;8.10;92.70
420;DHT22;42600;54.408;13.016;2022-11-15T15:16:09;8.10;92.70
420;DHT22;42600;54.408;13.016;2022-11-15T15:18:35;8.10;92.70
420;DHT22;42600;54.408;13.016;2022-11-15T15:21:02;8.10;92.70
420;DHT22;42600;54.408;13.016;2022-11-15T15:23:32;8.10;92.70
420;DHT22;42600;54.408;13.016;2022-11-15T15:26:02;8.10;92.70
420;DHT22;42600;54.408;13.016;2022-11-15T15:28:29;8.10;92.70
420;DHT22;42600;54.408;13.016;2022-11-15T15:30:56;8.10;92.70
420;DHT22;42600;54.408;13.016;2022-11-15T15:33:22;8.10;92.70
420;DHT22;42600;54.408;13.016;2022-11-15T15:35:49;8.10;92.70
420;DHT22;42600;54.408;13.016;2022-11-15T15:38:15;8.10;92.70
420;DHT22;42600;54.408;13.016;2022-11-15T15:40:42;8.10;92.70
420;DHT22;42600;54.408;13.016;2022-11-15T15:43:10;8.10;92.70
420;DHT22;42600;54.408;13.016;2022-11-15T15:45:38;8.10;92.70
420;DHT22;42600;54.408;13.016;2022-11-15T15:48:05;8.20;92.70
420;DHT22;42600;54.408;13.016;2022-11-15T15:50:33;8.20;92.70
420;DHT22;42600;54.408;13.016;2022-11-15T15:53:01;8.20;92.70
420;DHT22;42600;54.408;13.016;2022-11-15T15:55:28;8.20;92.70
420;DHT22;42600;54.408;13.016;2022-11-15T15:57:55;8.20;92.70
420;DHT22;42600;54.408;13.016;2022-11-15T16:00:24;8.20;92.70
420;DHT22;42600;54.408;13.016;2022-11-15T16:02:51;8.20;92.70
420;DHT22;42600;54.408;13.016;2022-11-15T16:05:19;8.20;92.70
420;DHT22;42600;54.408;13.016;2022-11-15T16:07:46;8.20;92.70
420;DHT22;42600;54.408;13.016;2022-11-15T16:10:19;8.20;92.70
420;DHT22;42600;54.408;13.016;2022-11-15T16:12:46;8.20;92.70
420;DHT22;42600;54.408;13.016;2022-11-15T16:15:12;8.30;92.70
420;DHT22;42600;54.408;13.016;2022-11-15T16:17:43;8.30;92.70
420;DHT22;42600;54.408;13.016;2022-11-15T16:20:23;8.30;92.70
420;DHT22;42600;54.408;13.016;2022-11-15T16:22:52;8.30;92.70
420;DHT22;42600;54.408;13.016;2022-11-15T16:25:19;8.30;92.70
420;DHT22;42600;54.408;13.016;2022-11-15T16:27:45;8.30;92.70
420;DHT22;42600;54.408;13.016;2022-11-15T16:30:14;8.30;92.70
420;DHT22;42600;54.408;13.016;2022-11-15T16:32:42;8.40;92.70